createdAt,value
2022-08-11T00:02:00.724Z,101139.31
2022-08-11T00:04:35.878Z,101132.59
2022-08-11T00:07:05.130Z,101133.47
2022-08-11T00:09:39.524Z,101133.41
2022-08-11T00:12:17.082Z,101135.34
2022-08-11T00:14:44.895Z,101137.94
2022-08-11T00:17:15.981Z,101138.88
2022-08-11T00:20:12.052Z,101149.44
2022-08-11T00:22:42.987Z,101138.13
2022-08-11T00:25:17.091Z,101142.91
2022-08-11T00:27:46.059Z,101153.09
2022-08-11T00:30:14.401Z,101151.50
2022-08-11T00:32:44.204Z,101149.31
2022-08-11T00:35:54.742Z,101146.41
2022-08-11T00:38:04.030Z,101148.06
2022-08-11T00:40:44.960Z,101143.16
2022-08-11T00:43:24.110Z,101146.59
2022-08-11T00:46:16.425Z,101140.88
2022-08-11T00:49:09.553Z,101140.50
2022-08-11T00:52:05.354Z,101146.56
2022-08-11T00:54:39.578Z,101143.38
2022-08-11T00:57:37.167Z,101146.41
2022-08-11T01:00:14.435Z,101139.44
2022-08-11T01:02:57.298Z,101142.47
2022-08-11T01:05:46.530Z,101140.00
2022-08-11T01:08:36.942Z,101143.94
2022-08-11T01:11:16.361Z,101128.78
2022-08-11T01:14:12.221Z,101140.31
2022-08-11T01:17:14.995Z,101141.69
2022-08-11T01:20:45.826Z,101130.88
2022-08-11T01:23:17.456Z,101126.75
2022-08-11T01:26:19.557Z,101127.19
2022-08-11T01:29:24.573Z,101119.03
2022-08-11T01:32:29.606Z,101116.66
2022-08-11T01:35:21.286Z,101109.59
2022-08-11T01:38:26.433Z,101098.59
2022-08-11T01:41:15.351Z,101097.50
2022-08-11T01:44:13.288Z,101092.47
2022-08-11T01:46:49.164Z,101071.75
2022-08-11T01:50:07.752Z,101077.00
2022-08-11T01:52:59.790Z,101061.13
2022-08-11T01:55:45.785Z,101060.38
2022-08-11T01:58:39.804Z,101051.63
2022-08-11T02:01:14.762Z,101046.84
2022-08-11T02:03:56.980Z,101052.69
2022-08-11T02:06:54.274Z,101051.41
2022-08-11T02:10:36.592Z,101054.72
2022-08-11T02:13:16.206Z,101045.91
2022-08-11T02:15:55.017Z,101050.16
2022-08-11T02:18:52.767Z,101042.41
2022-08-11T02:21:55.605Z,101033.13
2022-08-11T02:24:34.096Z,101034.88
2022-08-11T02:27:16.456Z,101034.53
2022-08-11T02:30:08.475Z,101035.72
2022-08-11T02:33:24.917Z,101040.13
2022-08-11T02:36:06.047Z,101034.38
2022-08-11T02:38:59.381Z,101039.59
2022-08-11T02:42:00.625Z,101037.41
2022-08-11T02:44:32.795Z,101035.78
2022-08-11T02:47:14.583Z,101043.16
2022-08-11T02:50:02.671Z,101038.75
2022-08-11T02:52:53.962Z,101050.25
2022-08-11T02:55:56.366Z,101054.78
2022-08-11T02:59:15.554Z,101045.63
2022-08-11T03:01:54.070Z,101037.06
2022-08-11T03:05:21.033Z,101047.59
2022-08-11T03:08:02.896Z,101047.06
2022-08-11T03:10:33.018Z,101048.66
2022-08-11T03:13:52.103Z,101045.50
2022-08-11T03:16:45.758Z,101047.72
2022-08-11T03:19:23.048Z,101045.22
2022-08-11T03:22:01.883Z,101039.66
2022-08-11T03:24:46.475Z,101043.31
2022-08-11T03:27:41.557Z,101044.75
2022-08-11T03:30:21.465Z,101036.66
2022-08-11T03:33:19.007Z,101034.56
2022-08-11T03:36:28.654Z,101038.03
2022-08-11T03:39:03.471Z,101038.63
2022-08-11T03:42:01.301Z,101038.72
2022-08-11T03:45:03.200Z,101035.78
2022-08-11T03:47:53.423Z,101030.91
2022-08-11T03:50:45.472Z,101045.84
2022-08-11T03:53:50.324Z,101034.38
2022-08-11T03:56:32.788Z,101035.78
2022-08-11T03:59:38.186Z,101041.34
2022-08-11T04:02:33.335Z,101034.09
2022-08-11T04:05:28.342Z,101035.78
2022-08-11T04:07:58.605Z,101037.16
2022-08-11T04:10:32.980Z,101040.63
2022-08-11T04:13:12.866Z,101042.44
2022-08-11T04:16:11.401Z,101034.88
2022-08-11T04:19:14.651Z,101034.63
2022-08-11T04:22:02.246Z,101027.66
2022-08-11T04:24:51.642Z,101031.25
2022-08-11T04:27:47.910Z,101036.50
2022-08-11T04:31:12.258Z,101037.75
2022-08-11T04:33:48.358Z,101032.91
2022-08-11T04:37:10.253Z,101041.41
2022-08-11T04:39:56.794Z,101039.03
2022-08-11T04:42:51.962Z,101032.28
2022-08-11T04:45:22.476Z,101036.44
2022-08-11T04:48:11.286Z,101031.66
2022-08-11T04:51:16.842Z,101036.41
2022-08-11T04:54:41.971Z,101040.56
2022-08-11T04:57:38.592Z,101039.41
2022-08-11T05:00:26.975Z,101037.75
2022-08-11T05:03:16.138Z,101053.94
2022-08-11T05:06:06.308Z,101057.84
2022-08-11T05:08:53.479Z,101061.59
2022-08-11T05:11:59.487Z,101055.91
2022-08-11T05:14:57.718Z,101055.06
2022-08-11T05:17:53.600Z,101059.56
2022-08-11T05:20:55.694Z,101060.97
2022-08-11T05:23:45.717Z,101056.81
2022-08-11T05:26:47.683Z,101060.44
2022-08-11T05:30:24.328Z,101058.50
2022-08-11T05:33:21.796Z,101058.56
2022-08-11T05:36:02.123Z,101058.84
2022-08-11T05:38:52.876Z,101062.50
2022-08-11T05:41:45.431Z,101060.03
2022-08-11T05:44:38.855Z,101060.56
2022-08-11T05:47:26.378Z,101059.19
2022-08-11T05:50:13.353Z,101060.31
2022-08-11T05:53:09.210Z,101060.75
2022-08-11T05:56:03.253Z,101058.94
2022-08-11T05:58:42.038Z,101064.00
2022-08-11T06:01:15.622Z,101059.28
2022-08-11T06:04:04.087Z,101056.78
2022-08-11T06:06:32.085Z,101054.69
2022-08-11T06:09:00.987Z,101054.25
2022-08-11T06:11:43.828Z,101055.34
2022-08-11T06:14:13.198Z,101060.88
2022-08-11T06:16:43.343Z,101053.63
2022-08-11T06:19:12.026Z,101050.50
2022-08-11T06:21:45.863Z,101041.75
2022-08-11T06:24:15.105Z,101051.25
2022-08-11T06:27:09.056Z,101047.78
2022-08-11T06:29:47.877Z,101054.41
2022-08-11T06:32:16.575Z,101052.53
2022-08-11T06:34:55.794Z,101045.22
2022-08-11T06:37:36.801Z,101051.16
2022-08-11T06:40:13.454Z,101041.03
2022-08-11T06:42:51.046Z,101048.41
2022-08-11T06:45:24.868Z,101043.66
2022-08-11T06:47:53.284Z,101042.13
2022-08-11T06:51:01.513Z,101040.56
2022-08-11T06:53:34.820Z,101040.91
2022-08-11T06:56:21.820Z,101047.31
2022-08-11T06:59:09.049Z,101040.28
2022-08-11T07:01:55.281Z,101038.19
2022-08-11T07:04:35.018Z,101031.16
2022-08-11T07:07:30.189Z,101038.84
2022-08-11T07:10:33.504Z,101034.16
2022-08-11T07:13:44.286Z,101037.78
2022-08-11T07:16:11.761Z,101034.06
2022-08-11T07:19:00.346Z,101036.03
2022-08-11T07:22:02.291Z,101029.66
2022-08-11T07:25:02.593Z,101025.56
2022-08-11T07:28:21.312Z,101029.47
2022-08-11T07:30:51.906Z,101032.06
2022-08-11T07:34:07.042Z,101023.03
2022-08-11T07:36:19.599Z,101019.28
2022-08-11T07:38:53.689Z,101025.97
2022-08-11T07:41:24.514Z,101024.88
2022-08-11T07:43:55.357Z,101022.13
2022-08-11T07:46:42.060Z,101023.13
2022-08-11T07:49:29.609Z,101026.19
2022-08-11T07:52:15.553Z,101019.97
2022-08-11T07:54:43.938Z,101020.09
2022-08-11T07:57:50.172Z,101024.22
2022-08-11T08:00:43.832Z,101026.38
2022-08-11T08:03:33.614Z,101022.34
2022-08-11T08:06:36.333Z,101024.00
2022-08-11T08:09:25.015Z,101023.44
2022-08-11T08:12:11.526Z,101023.06
2022-08-11T08:14:57.397Z,101020.94
2022-08-11T08:17:44.326Z,101013.28
2022-08-11T08:20:34.410Z,101018.84
2022-08-11T08:23:05.310Z,101022.00
2022-08-11T08:25:35.241Z,101015.41
2022-08-11T08:28:07.176Z,101019.22
2022-08-11T08:30:47.427Z,101018.94
2022-08-11T08:33:19.289Z,101019.03
2022-08-11T08:35:53.999Z,101015.31
2022-08-11T08:38:24.417Z,101023.81
2022-08-11T08:40:56.032Z,101025.13
2022-08-11T08:43:24.598Z,101015.78
2022-08-11T08:45:56.163Z,101028.56
2022-08-11T08:48:27.044Z,101025.78
2022-08-11T08:51:19.406Z,101034.84
2022-08-11T08:53:57.193Z,101026.69
2022-08-11T08:56:28.553Z,101025.13
2022-08-11T08:58:59.536Z,101024.22
2022-08-11T09:01:48.053Z,101015.25
2022-08-11T09:04:20.381Z,101016.13
2022-08-11T09:06:48.887Z,101019.84
2022-08-11T09:09:22.327Z,101018.56
2022-08-11T09:11:50.926Z,101013.94
2022-08-11T09:14:23.786Z,101017.59
2022-08-11T09:16:53.109Z,101014.22
2022-08-11T09:19:21.666Z,101013.09
2022-08-11T09:22:09.662Z,101007.25
2022-08-11T09:24:57.591Z,101007.34
2022-08-11T09:27:26.569Z,101006.59
2022-08-11T09:29:54.987Z,100995.97
2022-08-11T09:32:24.865Z,100996.09
2022-08-11T09:34:54.208Z,100991.94
2022-08-11T09:37:54.372Z,100994.56
2022-08-11T09:40:32.544Z,100990.47
2022-08-11T09:43:24.688Z,101003.91
2022-08-11T09:45:53.915Z,100989.44
2022-08-11T09:48:25.731Z,100984.28
2022-08-11T09:50:56.126Z,100990.31
2022-08-11T09:53:36.573Z,100982.78
2022-08-11T09:56:34.579Z,100986.91
2022-08-11T09:59:04.445Z,100980.34
2022-08-11T10:01:40.598Z,100973.09
2022-08-11T10:04:20.177Z,100968.75
2022-08-11T10:07:05.545Z,100969.22
2022-08-11T10:09:38.924Z,100970.38
2022-08-11T10:12:35.011Z,100968.81
2022-08-11T10:15:26.402Z,100966.63
2022-08-11T10:18:19.000Z,100968.41
2022-08-11T10:20:51.644Z,100952.44
2022-08-11T10:24:01.270Z,100948.47
2022-08-11T10:26:47.687Z,100944.38
2022-08-11T10:29:37.574Z,100947.78
2022-08-11T10:32:58.101Z,100943.28
2022-08-11T10:35:29.631Z,100939.16
2022-08-11T10:38:06.518Z,100929.22
2022-08-11T10:40:39.686Z,100931.59
2022-08-11T10:43:13.350Z,100925.41
2022-08-11T10:46:05.149Z,100927.63
2022-08-11T10:48:38.088Z,100916.59
2022-08-11T10:51:13.532Z,100916.59
2022-08-11T10:54:11.410Z,100909.44
2022-08-11T10:56:59.584Z,100920.00
2022-08-11T10:59:28.425Z,100907.97
2022-08-11T11:01:58.034Z,100912.16
2022-08-11T11:04:45.616Z,100913.34
2022-08-11T11:07:30.235Z,100914.56
2022-08-11T11:10:01.837Z,100909.13
2022-08-11T11:12:57.072Z,100908.31
2022-08-11T11:15:47.230Z,100901.72
2022-08-11T11:19:00.701Z,100904.75
2022-08-11T11:21:29.544Z,100904.16
2022-08-11T11:24:15.660Z,100899.78
2022-08-11T11:27:00.873Z,100892.84
2022-08-11T11:29:56.333Z,100894.06
2022-08-11T11:32:44.379Z,100892.31
2022-08-11T11:35:35.990Z,100889.50
2022-08-11T11:38:13.779Z,100892.47
2022-08-11T11:40:42.171Z,100883.06
2022-08-11T11:43:11.550Z,100879.63
2022-08-11T11:45:41.879Z,100884.31
2022-08-11T11:48:13.298Z,100880.13
2022-08-11T11:50:43.014Z,100876.31
2022-08-11T11:53:12.436Z,100870.22
2022-08-11T11:55:41.413Z,100874.75
2022-08-11T11:58:28.289Z,100872.28
2022-08-11T12:01:15.495Z,100867.53
2022-08-11T12:03:53.437Z,100867.75
2022-08-11T12:06:23.350Z,100867.97
2022-08-11T12:08:54.438Z,100864.88
2022-08-11T12:11:43.774Z,100865.28
2022-08-11T12:14:13.262Z,100861.22
2022-08-11T12:16:43.541Z,100858.09
2022-08-11T12:19:25.039Z,100861.78
2022-08-11T12:22:15.484Z,100848.88
2022-08-11T12:25:05.277Z,100850.97
2022-08-11T12:27:33.028Z,100847.47
2022-08-11T12:30:11.472Z,100830.88
2022-08-11T12:32:41.659Z,100829.69
2022-08-11T12:35:09.578Z,100845.19
2022-08-11T12:37:42.509Z,100837.97
2022-08-11T12:40:43.152Z,100836.25
2022-08-11T12:43:42.316Z,100826.34
2022-08-11T12:46:13.194Z,100832.59
2022-08-11T12:49:07.764Z,100825.13
2022-08-11T12:52:14.418Z,100818.06
2022-08-11T12:55:07.551Z,100818.13
2022-08-11T12:58:02.336Z,100812.53
2022-08-11T13:00:50.508Z,100811.47
2022-08-11T13:03:42.709Z,100801.31
2022-08-11T13:06:11.455Z,100797.38
2022-08-11T13:08:40.592Z,100791.22
2022-08-11T13:11:56.221Z,100792.63
2022-08-11T13:14:17.178Z,100784.97
2022-08-11T13:17:06.269Z,100780.38
2022-08-11T13:19:36.180Z,100778.34
2022-08-11T13:22:09.102Z,100772.53
2022-08-11T13:24:37.099Z,100765.50
2022-08-11T13:27:05.638Z,100771.88
2022-08-11T13:29:36.000Z,100772.72
2022-08-11T13:32:04.194Z,100769.22
2022-08-11T13:34:32.570Z,100768.63
2022-08-11T13:37:02.920Z,100766.56
2022-08-11T13:39:34.792Z,100771.69
2022-08-11T13:42:04.595Z,100763.88
2022-08-11T13:44:36.136Z,100759.69
2022-08-11T13:47:07.972Z,100756.41
2022-08-11T13:49:39.545Z,100754.13
2022-08-11T13:52:16.037Z,100745.03
2022-08-11T13:54:46.235Z,100743.78
2022-08-11T13:58:06.645Z,100750.63
2022-08-11T14:00:12.942Z,100744.75
2022-08-11T14:02:53.599Z,100742.47
2022-08-11T14:05:27.153Z,100729.91
2022-08-11T14:08:04.781Z,100739.00
2022-08-11T14:10:38.750Z,100726.19
2022-08-11T14:13:42.266Z,100726.19
2022-08-11T14:16:32.091Z,100710.69
2022-08-11T14:19:08.989Z,100717.09
2022-08-11T14:21:59.327Z,100714.13
2022-08-11T14:24:29.234Z,100714.31
2022-08-11T14:26:57.004Z,100713.69
2022-08-11T14:29:27.615Z,100712.84
2022-08-11T14:32:06.504Z,100700.03
2022-08-11T14:34:37.756Z,100709.19
2022-08-11T14:37:13.409Z,100699.47
2022-08-11T14:40:04.132Z,100699.94
2022-08-11T14:42:50.741Z,100704.09
2022-08-11T14:45:55.490Z,100696.66
2022-08-11T14:48:26.600Z,100693.81
2022-08-11T14:50:54.415Z,100687.09
2022-08-11T14:53:23.253Z,100691.25
2022-08-11T14:56:10.411Z,100688.72
2022-08-11T14:58:40.393Z,100692.28
2022-08-11T15:01:28.050Z,100696.22
2022-08-11T15:04:04.433Z,100683.41
2022-08-11T15:06:46.253Z,100678.53
2022-08-11T15:09:13.957Z,100673.59
2022-08-11T15:12:01.007Z,100678.13
2022-08-11T15:14:47.089Z,100678.16
2022-08-11T15:17:16.108Z,100670.28
2022-08-11T15:20:05.306Z,100663.22
2022-08-11T15:22:52.829Z,100665.31
2022-08-11T15:25:21.284Z,100645.69
2022-08-11T15:28:09.205Z,100656.69
2022-08-11T15:30:56.847Z,100658.09
2022-08-11T15:33:47.351Z,100656.66
2022-08-11T15:36:33.669Z,100656.63
2022-08-11T15:39:24.101Z,100646.25
2022-08-11T15:42:19.520Z,100658.28
2022-08-11T15:45:14.500Z,100653.06
2022-08-11T15:48:05.951Z,100651.19
2022-08-11T15:50:39.457Z,100653.28
2022-08-11T15:53:20.292Z,100646.69
2022-08-11T15:55:49.405Z,100644.22
2022-08-11T15:58:38.908Z,100645.06
2022-08-11T16:01:29.002Z,100645.50
2022-08-11T16:04:12.666Z,100641.34
2022-08-11T16:06:49.621Z,100639.69
2022-08-11T16:09:23.596Z,100636.97
2022-08-11T16:11:54.267Z,100647.78
2022-08-11T16:14:42.085Z,100641.34
2022-08-11T16:17:15.209Z,100643.66
2022-08-11T16:19:44.349Z,100634.72
2022-08-11T16:22:14.790Z,100625.63
2022-08-11T16:27:05.717Z,100627.31
2022-08-11T16:27:41.624Z,100633.09
2022-08-11T16:30:14.428Z,100627.31
2022-08-11T16:32:46.881Z,100628.97
2022-08-11T16:35:35.821Z,100627.09
2022-08-11T16:38:24.429Z,100630.38
2022-08-11T16:40:54.130Z,100643.84
2022-08-11T16:43:45.630Z,100632.44
2022-08-11T16:46:37.212Z,100632.97
2022-08-11T16:49:15.786Z,100630.09
2022-08-11T16:51:45.371Z,100631.81
2022-08-11T16:54:13.588Z,100628.50
2022-08-11T16:56:51.031Z,100639.25
2022-08-11T16:59:32.129Z,100641.31
2022-08-11T17:02:07.735Z,100636.66
2022-08-11T17:05:09.946Z,100634.56
2022-08-11T17:08:01.221Z,100640.75
2022-08-11T17:11:03.889Z,100648.22
2022-08-11T17:13:43.665Z,100649.41
2022-08-11T17:16:13.690Z,100650.59
2022-08-11T17:18:57.460Z,100650.22
2022-08-11T17:21:27.390Z,100636.91
2022-08-11T17:24:08.521Z,100646.00
2022-08-11T17:26:57.280Z,100653.81
2022-08-11T17:29:53.759Z,100650.50
2022-08-11T17:32:56.287Z,100655.16
2022-08-11T17:35:38.994Z,100658.41
2022-08-11T17:38:09.886Z,100664.22
2022-08-11T17:40:40.573Z,100667.25
2022-08-11T17:43:28.433Z,100665.34
2022-08-11T17:46:16.391Z,100660.34
2022-08-11T17:48:48.336Z,100663.13
2022-08-11T17:51:38.454Z,100665.50
2022-08-11T17:54:28.139Z,100665.50
2022-08-11T17:57:20.082Z,100667.09
2022-08-11T17:59:56.584Z,100668.09
2022-08-11T18:02:48.394Z,100686.00
2022-08-11T18:05:18.427Z,100682.28
2022-08-11T18:08:05.506Z,100674.44
2022-08-11T18:10:53.211Z,100680.56
2022-08-11T18:13:42.904Z,100690.97
2022-08-11T18:16:29.476Z,100685.47
2022-08-11T18:19:15.982Z,100677.16
2022-08-11T18:22:13.177Z,100678.06
2022-08-11T18:25:21.682Z,100676.78
2022-08-11T18:28:12.786Z,100676.34
2022-08-11T18:31:01.901Z,100679.75
2022-08-11T18:34:13.865Z,100669.78
2022-08-11T18:37:22.022Z,100684.63
2022-08-11T18:40:17.548Z,100676.78
2022-08-11T18:43:06.778Z,100670.50
2022-08-11T18:46:06.105Z,100681.22
2022-08-11T18:49:00.743Z,100682.16
2022-08-11T18:51:47.230Z,100682.44
2022-08-11T18:54:34.905Z,100688.94
2022-08-11T18:57:25.693Z,100689.88
2022-08-11T19:00:12.294Z,100688.22
2022-08-11T19:02:59.853Z,100685.56
2022-08-11T19:06:08.396Z,100688.44
2022-08-11T19:09:04.554Z,100689.56
2022-08-11T19:11:52.083Z,100684.69
2022-08-11T19:14:41.157Z,100699.13
2022-08-11T19:17:44.216Z,100701.16
2022-08-11T19:20:42.497Z,100706.75
2022-08-11T19:23:31.346Z,100702.09
2022-08-11T19:26:19.409Z,100698.84
2022-08-11T19:29:07.500Z,100696.38
2022-08-11T19:31:57.210Z,100684.28
2022-08-11T19:34:45.894Z,100695.25
2022-08-11T19:37:33.568Z,100690.63
2022-08-11T19:40:32.163Z,100705.09
2022-08-11T19:43:26.137Z,100696.03
2022-08-11T19:46:16.939Z,100696.75
2022-08-11T19:49:05.015Z,100695.75
2022-08-11T19:51:54.841Z,100712.56
2022-08-11T19:54:50.676Z,100707.06
2022-08-11T19:57:40.268Z,100703.59
2022-08-11T20:00:35.730Z,100726.25
2022-08-11T20:03:24.696Z,100715.25
2022-08-11T20:06:12.147Z,100720.75
2022-08-11T20:09:02.939Z,100718.47
2022-08-11T20:11:54.640Z,100718.63
2022-08-11T20:14:43.407Z,100720.28
2022-08-11T20:17:32.707Z,100722.94
2022-08-11T20:20:22.702Z,100717.44
2022-08-11T20:23:14.099Z,100727.28
2022-08-11T20:26:14.020Z,100727.94
2022-08-11T20:29:10.939Z,100730.81
2022-08-11T20:31:57.788Z,100727.63
2022-08-11T20:34:43.770Z,100718.63
2022-08-11T20:37:31.018Z,100725.47
2022-08-11T20:40:23.701Z,100718.84
2022-08-11T20:44:07.632Z,100714.34
2022-08-11T20:46:20.679Z,100718.00
2022-08-11T20:49:10.535Z,100713.00
2022-08-11T20:52:00.144Z,100710.69
2022-08-11T20:54:53.542Z,100711.00
2022-08-11T20:57:59.888Z,100716.31
2022-08-11T21:00:47.717Z,100722.00
2022-08-11T21:03:44.721Z,100729.66
2022-08-11T21:06:34.011Z,100731.16
2022-08-11T21:09:58.654Z,100738.84
2022-08-11T21:12:35.003Z,100748.00
2022-08-11T21:15:46.880Z,100747.31
2022-08-11T21:18:33.475Z,100750.63
2022-08-11T21:21:24.767Z,100756.50
2022-08-11T21:24:13.109Z,100766.84
2022-08-11T21:27:05.495Z,100769.31
2022-08-11T21:29:54.470Z,100767.81
2022-08-11T21:32:42.262Z,100773.66
2022-08-11T21:35:30.458Z,100797.00
2022-08-11T21:38:18.578Z,100807.31
2022-08-11T21:41:06.853Z,100819.00
2022-08-11T21:43:54.156Z,100832.19
2022-08-11T21:46:42.391Z,100822.81
2022-08-11T21:49:30.506Z,100839.00
2022-08-11T21:52:16.430Z,100861.34
2022-08-11T21:55:02.706Z,100897.06
2022-08-11T21:57:50.225Z,100915.13
2022-08-11T22:00:36.482Z,100907.28
2022-08-11T22:03:23.937Z,100903.03
2022-08-11T22:06:12.562Z,100913.75
2022-08-11T22:08:59.445Z,100906.00
2022-08-11T22:11:47.106Z,100907.09
2022-08-11T22:14:33.168Z,100896.91
2022-08-11T22:17:19.088Z,100871.00
2022-08-11T22:20:05.551Z,100876.16
2022-08-11T22:22:53.097Z,100866.66
2022-08-11T22:25:50.987Z,100857.84
2022-08-11T22:28:40.324Z,100872.41
2022-08-11T22:31:29.145Z,100849.78
2022-08-11T22:34:15.178Z,100854.47
2022-08-11T22:37:03.303Z,100838.06
2022-08-11T22:39:59.951Z,100829.38
2022-08-11T22:42:52.515Z,100825.78
2022-08-11T22:45:39.252Z,100818.66
2022-08-11T22:48:27.691Z,100819.41
2022-08-11T22:51:14.304Z,100825.84
2022-08-11T22:54:01.425Z,100846.69
2022-08-11T22:56:49.336Z,100869.56
2022-08-11T22:59:37.880Z,100884.06
2022-08-11T23:02:25.517Z,100867.31
2022-08-11T23:05:12.421Z,100870.84
2022-08-11T23:08:01.038Z,100853.56
2022-08-11T23:10:48.596Z,100841.84
2022-08-11T23:13:35.540Z,100834.56
2022-08-11T23:16:22.230Z,100831.06
2022-08-11T23:19:09.281Z,100828.72
2022-08-11T23:21:56.374Z,100828.34
2022-08-11T23:24:41.904Z,100820.56
2022-08-11T23:27:28.512Z,100825.03
2022-08-11T23:30:19.267Z,100811.34
2022-08-11T23:33:09.716Z,100801.28
2022-08-11T23:36:04.490Z,100787.28
2022-08-11T23:38:52.405Z,100773.00
2022-08-11T23:41:39.261Z,100760.38
2022-08-11T23:44:27.854Z,100755.28
2022-08-11T23:47:15.255Z,100758.03
2022-08-11T23:50:03.208Z,100771.69
2022-08-11T23:52:52.148Z,100777.22
2022-08-11T23:55:39.685Z,100761.81
2022-08-11T23:58:26.879Z,100753.41
